Duarte Ribeiro

Olheiro-Chefe - AVS
6 Ago 2028
Domingo
Processo

Personalidade

Adaptabilidade (10) Ambição (7) Controvérsia (9) Lealdade (1) Pressão (17) Profissionalismo (9) Espírito Esportivo (18) Temperamento (16)

Perfil

Estilo de Treinamento Democrático
Licença Continental A
Determinação 11
Gestão de Pessoas 5
Motivação 9
Disciplina 5
Satisfação no Trabalho
100%
Fadiga
0%
Função Olheiro-Chefe
Salário 43.6K p/s
Contrato 14.03.2029

Desempenho

Comportamento Bom
Eficácia do Treinamento
41%
Desenvolvimento do Jogador
55%
Prevenção de Lesões
60%
Implementação Tática
45%

Eventos Recentes

Participou de uma reunião de recrutamento agora
Participou de uma reunião de recrutamento agora
Recomendou um alvo de transferência agora
Votou contra um alvo de transferência agora
Recomendou um alvo de transferência agora
Recomendou um alvo de transferência 7d atrás
Recomendou um alvo de transferência 7d atrás
Recomendou um alvo de transferência 7d atrás

Monitorando agora

126
Jogador Clube Status Habilidade Confiança Observado Última observação Último voto
Mao Hosoya Santos Ativo 134 / 135 67% 1 01.01.2028 Aprovar
Auwalu Ali Malam Kano Pillars Ativo 106 / 91 40% 1 30.08.2027 -
Agustín Alaniz Rentistas Ativo 127 / 124 40% 1 30.08.2027 -
Cristian Barros Cerro Ativo 119 / 117 40% 1 10.08.2027 -
Mees Rijks Bristol Rovers Ativo 125 / 126 40% 1 02.08.2027 -
Vinícius Lopes Santa Clara Ativo 116 / 131 40% 3 21.07.2027 -
Stephen Humphrys Bradford City Ativo 108 / 107 40% 1 21.07.2027 -
Patson Daka Leicester City Ativo 128 / 138 40% 1 12.07.2027 -
Carlton Morris Derby County Ativo 133 / 128 40% 1 07.07.2027 -
Callum O'Hare Sheffield United Ativo 141 / 145 40% 1 07.07.2027 -
Victor Andersson Vitoria Guimaraes Ativo 113 / 128 58% 1 05.07.2027 -
Johannes Eggestein Orlando City Ativo 125 / 125 68% 1 01.06.2027 Aprovar
Samuel Edozie Southampton Ativo 138 / 121 40% 2 28.05.2027 -
Juanlu Bournemouth Ativo 144 / 148 40% 2 28.05.2027 -
Derensili Sanches Fernandes Huddersfield Town Ativo 119 / 113 40% 2 27.05.2027 -
Mohamed-Ali Cho Hull City Ativo 128 / 145 40% 2 27.05.2027 -
Max Johnston Derby County Ativo 123 / 139 40% 3 26.05.2027 -
Ali Ahmed Norwich City Ativo 130 / 133 40% 1 26.05.2027 -
Juan Bezerra Zamalek Ativo 122 / 111 40% 2 22.05.2027 -
Bobby Clark Derby County Ativo 132 / 136 40% 2 22.05.2027 -
Jack Rudoni Coventry City Ativo 138 / 127 40% 2 16.05.2027 -
Brooke Norton-Cuffy Hull City Ativo 138 / 141 40% 1 16.05.2027 -
Finn Azaz Southampton Ativo 135 / 132 40% 3 14.05.2027 -
Welington Southampton Ativo 132 / 134 40% 1 14.05.2027 -
Tony Springett Cheltenham Town Ativo 104 / 100 40% 2 13.05.2027 -
Chemsdine Talbi Sunderland Ativo 152 / 156 40% 3 09.05.2027 -
Sam Greenwood Bristol City Ativo 130 / 129 40% 1 05.05.2027 -
Ole Pohlmann Rio Ave Ativo 115 / 119 40% 4 02.05.2027 -
Malik Mothersille Stockport County Ativo 115 / 111 40% 1 02.05.2027 -
Sorriso Famalicao Ativo 140 / 121 40% 5 30.04.2027 -
Isaiah Jones Luton Town Ativo 129 / 122 40% 3 29.04.2027 -
Lorougnon Gohi Académico de Viseu Ativo 110 / 124 40% 2 29.04.2027 -
Rafik Guitane Estoril Praia Ativo 139 / 142 40% 5 27.04.2027 -
Santi García Gil Vicente Ativo 132 / 123 40% 1 26.04.2027 -
Yanis Begraoui Estoril Praia Ativo 129 / 128 40% 2 23.04.2027 -
Richard Koné Queens Park Rangers Ativo 124 / 128 40% 1 22.04.2027 -
Jackson Muleka Konyaspor Ativo 118 / 115 40% 1 22.04.2027 -
Alex Scott Bournemouth Ativo 159 / 152 40% 3 21.04.2027 -
Alex Robertson Cardiff City Ativo 127 / 115 40% 1 16.04.2027 -
Manu Pozo Torreense Ativo 117 / 130 40% 3 15.04.2027 -
Jordan Holsgrove Estoril Praia Ativo 133 / 138 40% 2 15.04.2027 -
Tyrese Campbell Sheffield United Ativo 134 / 117 40% 4 14.04.2027 -
Habib Diarra Sunderland Ativo 135 / 133 40% 1 11.04.2027 -
Scott Twine Bristol City Ativo 129 / 114 40% 3 10.04.2027 -
Erick Pulga Bahia Ativo 143 / 122 40% 1 02.04.2027 -
Dale Taylor Blackpool Ativo 100 / 118 40% 1 30.03.2027 -
João Mendes Vitoria Guimaraes Ativo 128 / 107 40% 1 30.03.2027 -
Kevin Fulham Ativo 146 / 151 40% 2 27.03.2027 -
Daniel Kyerewaa Reading Ativo 104 / 109 40% 1 26.03.2027 -
Martín Tejón Maritimo Ativo 122 / 120 40% 1 24.03.2027 -
Marcelo Allende Mamelodi Sundowns Ativo 140 / 123 40% 1 23.03.2027 -
Savinho Tottenham Ativo 162 / 149 40% 3 15.03.2027 -
Bongani Zungu Ajax Cape Town Ativo 128 / 122 40% 1 14.03.2027 -
Justo Giani Umraniyespor Ativo 119 / 116 40% 1 13.03.2027 -
Malik Sellouki Rio Ave Ativo 105 / 107 40% 1 12.03.2027 -
Tiago Freitas Benfica Ativo 107 / 123 40% 1 09.03.2027 -
James Dornelly Peterborough United Ativo 107 / 116 40% 1 09.03.2027 -
Cian Ashford Cardiff City Ativo 119 / 110 40% 1 03.03.2027 -
Ilias Sebaoui Sint-Truiden Ativo 135 / 139 40% 1 02.03.2027 -
Bradley Zwane SuperSport United Ativo 122 / 106 40% 1 27.02.2027 -
Gustavo Silva Vitoria Guimaraes Ativo 119 / 129 40% 1 20.02.2027 -
Peter Federico Gornik Zabrze Ativo 129 / 135 40% 2 17.02.2027 -
Simo Maritimo Ativo 108 / 119 40% 1 17.02.2027 -
Francisco França Felgueiras Ativo 102 / 101 55% 1 25.01.2027 -
Sampson Dweh Mallorca Ativo 133 / 134 66% 1 01.01.2027 Aprovar
Víctor Gómez Braga Ativo 138 / 138 66% 1 01.01.2027 Aprovar
Mateus Mané Burnley Ativo 133 / 125 40% 1 30.12.2026 -
Joseph George Aigle Royal de Moungo Ativo 98 / 79 40% 1 29.12.2026 -
Sindre Walle Egeli Udinese Ativo 124 / 125 40% 3 28.12.2026 -
Mathys Tel Tottenham Ativo 141 / 141 40% 1 28.12.2026 -
Tiago Pucciarelli IF Elfsborg Ativo 108 / 93 40% 1 27.12.2026 -
Will Lankshear Middlesbrough Ativo 123 / 131 40% 1 26.12.2026 -
Rocco Vata Watford Ativo 111 / 136 40% 4 24.12.2026 -
Miloš Jovičić Zabbar St. Patrick Ativo 86 / 104 40% 2 24.12.2026 -
Lucas Lima Ceará Ativo 105 / 111 40% 1 24.12.2026 -
Jalal Abdullai Molde Ativo 97 / 124 40% 2 18.12.2026 -
Jordan van der Gaag Leiria Ativo 114 / 105 40% 1 18.12.2026 -
Leo Castledine Middlesbrough Ativo 132 / 139 40% 6 17.12.2026 -
Mikel Gogorza Brondby Ativo 117 / 123 40% 4 14.12.2026 -
Matías Contrera Hrvatski Dragovoljac Ativo 88 / 93 40% 2 13.12.2026 -
Nazif Inoussa Benfica Ativo 77 / 71 67% 1 12.12.2026 Rejeitar
Ramiro Sordo Santos Laguna Ativo 132 / 140 40% 2 10.12.2026 -
Markus Jensen Nacional Ativo 117 / 122 40% 2 06.12.2026 -
Jocelin Ta Bi Sunderland Ativo 116 / 126 40% 1 05.12.2026 -
George Brown Sheffield Wednesday Ativo 93 / 95 40% 2 03.12.2026 -
Sam Amo-Ameyaw RC Strasbourg Ativo 123 / 120 40% 1 01.12.2026 -
Dilan Neves Benfica Ativo 64 / 71 40% 1 27.11.2026 -
Víctor Guzmán Sporting CP Ativo 89 / 86 40% 2 24.11.2026 -
Marko Brkić NK Krka Ativo 80 / 101 40% 1 23.11.2026 -
Alexander Lyng SonderjyskE Ativo 126 / 138 40% 1 19.11.2026 -
Gabriel Monjes Hamrun Spartans Ativo 82 / 81 40% 1 18.11.2026 -
Noni Madueke Arsenal Ativo 144 / 144 40% 1 16.11.2026 -
Ousseynou Seck Randers Ativo 97 / 111 40% 1 12.11.2026 -
Youssoufa Moukoko FC Copenhagen Ativo 130 / 113 40% 8 10.11.2026 -
Roberto Fernández Braga Ativo 151 / 127 40% 5 07.11.2026 Observar
Bogdan Petrović TSC Ativo 109 / 111 40% 1 28.10.2026 -
Benjamin Kanurić Grodig Ativo 98 / 121 40% 2 27.10.2026 -
Caio Wesley Fortaleza Ativo 81 / 71 40% 1 27.10.2026 -
Juan Sierra La Equidad Ativo 128 / 113 40% 1 23.10.2026 -
Ryan Oné Sheffield United Ativo 97 / 129 40% 1 11.10.2026 -
Tyrhys Dolan Espanyol Ativo 133 / 134 40% 1 08.10.2026 -
Alexis Cuello San Lorenzo Ativo 136 / 137 40% 1 05.10.2026 -
Martín Ojeda Orlando City Ativo 129 / 114 40% 1 05.10.2026 -
Mason Mount Manchester United Ativo 155 / 163 40% 1 05.10.2026 -
Yankuba Minteh Brighton Ativo 154 / 148 40% 1 30.09.2026 -
Antony Portland Timbers Ativo 131 / 111 40% 2 29.09.2026 -
Carlos Forbs Club Brugge Ativo 121 / 142 40% 1 29.09.2026 -
Oswin Appollis Orlando Pirates Ativo 110 / 133 40% 1 27.09.2026 -
Ezekiel Kwame Alladoh Philadelphia Union Ativo 122 / 100 40% 1 25.09.2026 -
Cheikh Sabaly Vancouver Whitecaps Ativo 136 / 144 40% 1 21.09.2026 -
Camilo Martinez Cortulua Ativo 130 / 110 40% 1 20.09.2026 -
Sorba Thomas Stoke City Ativo 129 / 123 40% 1 20.09.2026 -
Valentín Depietri Talleres Ativo 116 / 129 40% 1 17.09.2026 -
Elias Achouri San Diego Football Club Ativo 126 / 110 40% 1 17.09.2026 -
Dylan Cabral Arsenal Ativo 78 / 95 40% 1 16.09.2026 -
Alejandro Piedrahita Deportivo Pereira Ativo 105 / 144 40% 1 16.09.2026 -
Tariq Lamptey Queens Park Rangers Ativo 125 / 122 40% 1 15.09.2026 -
Georginio Rutter Brighton Ativo 137 / 146 40% 2 13.09.2026 -
Soma Anzai FC Tokyo Ativo 102 / 135 40% 1 13.09.2026 -
Matt O'Riley Brighton Ativo 137 / 130 40% 1 11.09.2026 -
Matthew Bailey Arsenal Ativo 85 / 79 40% 1 10.09.2026 -
Matías Fernández Independiente Rivadavia Ativo 119 / 137 40% 1 08.09.2026 -
Juan Cruz de los Santos Nacional Ativo 133 / 136 40% 1 07.09.2026 -
Alex Vigo Independiente Rivadavia Ativo 125 / 117 40% 1 07.09.2026 -
Santiago Fernández Talleres Ativo 130 / 136 40% 1 31.08.2026 -
Simphiwe Selepe Orlando Pirates Ativo 113 / 107 40% 1 24.08.2026 -